RON1284 ANYN-PTPN
Flight info
| Callsign | RON1284 |
|---|---|
| Flight time | 1h 38m |
| Altitude | 32000 |
| Route | DCT YN812 DCT AKOMO DCT BIGRA DCT FENSE DCT KATHZ DCT AFOYU DCT ZULTO DCT |
| Aircraft | B738/M-VGDW/C |
Departure
| Time | 2026-04-25 16:48 |
|---|---|
| Airport | Nauru International Airport (ANYN) |
Arrival
| Time | 2026-04-25 18:27 |
|---|---|
| Airport | Pohnpei International Airport (PTPN) |
| Time | Latitude | Longitude | Altitude | Speed | Heading |
|---|---|---|---|---|---|
| 2026-04-25 16:20 | -0.54417 | 166.91653 | 29 ft | 0 kts | 66° |
| 2026-04-25 16:44 | -0.54415 | 166.91661 | 29 ft | 4 kts | 86° |
| 2026-04-25 16:44 | -0.54445 | 166.91690 | 29 ft | 7 kts | 176° |
| 2026-04-25 16:44 | -0.54492 | 166.91661 | 29 ft | 8 kts | 220° |
| 2026-04-25 16:44 | -0.54546 | 166.91676 | 29 ft | 11 kts | 130° |
| 2026-04-25 16:45 | -0.54614 | 166.91751 | 29 ft | 17 kts | 129° |
| 2026-04-25 16:45 | -0.54713 | 166.91870 | 29 ft | 26 kts | 130° |
| 2026-04-25 16:45 | -0.54847 | 166.92030 | 29 ft | 31 kts | 130° |
| 2026-04-25 16:45 | -0.54999 | 166.92206 | 29 ft | 34 kts | 129° |
| 2026-04-25 16:46 | -0.55157 | 166.92394 | 29 ft | 33 kts | 131° |
| 2026-04-25 16:46 | -0.55291 | 166.92549 | 29 ft | 22 kts | 128° |
| 2026-04-25 16:46 | -0.55331 | 166.92645 | 29 ft | 7 kts | 128° |
| 2026-04-25 16:46 | -0.55345 | 166.92650 | 29 ft | 6 kts | 183° |
| 2026-04-25 16:47 | -0.55344 | 166.92610 | 29 ft | 0 kts | 309° |
| 2026-04-25 16:48 | -0.55337 | 166.92603 | 29 ft | 3 kts | 310° |
| 2026-04-25 16:48 | -0.55208 | 166.92448 | 30 ft | 66 kts | 310° |
| 2026-04-25 16:48 | -0.54729 | 166.91888 | 30 ft | 142 kts | 311° |
| 2026-04-25 16:48 | -0.54047 | 166.91064 | 638 ft | 157 kts | 313° |
| 2026-04-25 16:49 | -0.53296 | 166.90178 | 1076 ft | 185 kts | 313° |
| 2026-04-25 16:49 | -0.52450 | 166.89168 | 1862 ft | 193 kts | 312° |
| 2026-04-25 16:49 | -0.51641 | 166.88173 | 2875 ft | 189 kts | 311° |
| 2026-04-25 16:49 | -0.50752 | 166.87151 | 3640 ft | 209 kts | 315° |
| 2026-04-25 16:50 | -0.49777 | 166.86053 | 4530 ft | 229 kts | 314° |
| 2026-04-25 16:50 | -0.48869 | 166.84672 | 5292 ft | 262 kts | 289° |
| 2026-04-25 16:50 | -0.48555 | 166.82806 | 6202 ft | 289 kts | 277° |
| 2026-04-25 16:50 | -0.48364 | 166.80775 | 7076 ft | 301 kts | 276° |
| 2026-04-25 16:51 | -0.48178 | 166.78702 | 7750 ft | 304 kts | 276° |
| 2026-04-25 16:51 | -0.47987 | 166.76604 | 8424 ft | 307 kts | 276° |
| 2026-04-25 16:51 | -0.47792 | 166.74481 | 9101 ft | 310 kts | 276° |
| 2026-04-25 16:51 | -0.47658 | 166.73038 | 9557 ft | 312 kts | 277° |
| 2026-04-25 16:52 | -0.46618 | 166.70380 | 10445 ft | 313 kts | 310° |
| 2026-04-25 16:52 | -0.45202 | 166.68768 | 11166 ft | 317 kts | 315° |
| 2026-04-25 16:52 | -0.43715 | 166.67151 | 11855 ft | 332 kts | 315° |
| 2026-04-25 16:52 | -0.42130 | 166.65420 | 12648 ft | 351 kts | 315° |
| 2026-04-25 16:53 | -0.38743 | 166.61716 | 14260 ft | 383 kts | 315° |
| 2026-04-25 16:53 | -0.36892 | 166.59691 | 15074 ft | 394 kts | 315° |
| 2026-04-25 16:53 | -0.35042 | 166.57666 | 15842 ft | 397 kts | 315° |
| 2026-04-25 16:54 | -0.33185 | 166.55635 | 16570 ft | 400 kts | 315° |
| 2026-04-25 16:54 | -0.31387 | 166.53670 | 17247 ft | 402 kts | 315° |
| 2026-04-25 16:54 | -0.29876 | 166.52017 | 17806 ft | 404 kts | 315° |
| 2026-04-25 16:54 | -0.28037 | 166.50008 | 18482 ft | 407 kts | 315° |
| 2026-04-25 16:55 | -0.26140 | 166.47935 | 19174 ft | 410 kts | 315° |
| 2026-04-25 16:55 | -0.24214 | 166.45831 | 19874 ft | 413 kts | 315° |
| 2026-04-25 16:55 | -0.22275 | 166.43712 | 20436 ft | 416 kts | 315° |
| 2026-04-25 16:55 | -0.20468 | 166.41736 | 20940 ft | 418 kts | 315° |
| 2026-04-25 16:56 | -0.16504 | 166.37401 | 22008 ft | 422 kts | 315° |
| 2026-04-25 16:56 | -0.14527 | 166.35240 | 22547 ft | 425 kts | 315° |
| 2026-04-25 16:56 | -0.12542 | 166.33069 | 23097 ft | 427 kts | 315° |
| 2026-04-25 16:57 | -0.10529 | 166.30867 | 23672 ft | 430 kts | 315° |
| 2026-04-25 16:57 | -0.09854 | 166.30129 | 23870 ft | 431 kts | 315° |
| 2026-04-25 16:57 | -0.06489 | 166.26451 | 24817 ft | 435 kts | 315° |
| 2026-04-25 16:57 | -0.04419 | 166.24187 | 25391 ft | 438 kts | 315° |
| 2026-04-25 16:58 | -0.02381 | 166.21957 | 25944 ft | 441 kts | 315° |
| 2026-04-25 16:58 | -0.00314 | 166.19698 | 26504 ft | 444 kts | 315° |
| 2026-04-25 16:58 | 0.01769 | 166.17421 | 27078 ft | 446 kts | 315° |
| 2026-04-25 16:58 | 0.03862 | 166.15132 | 27653 ft | 449 kts | 315° |
| 2026-04-25 16:59 | 0.05958 | 166.12839 | 28226 ft | 452 kts | 315° |
| 2026-04-25 16:59 | 0.08090 | 166.10509 | 28804 ft | 455 kts | 315° |
| 2026-04-25 16:59 | 0.10245 | 166.08153 | 29377 ft | 459 kts | 315° |
| 2026-04-25 16:59 | 0.12401 | 166.05795 | 29889 ft | 462 kts | 315° |
| 2026-04-25 17:00 | 0.14558 | 166.03435 | 30341 ft | 464 kts | 315° |
| 2026-04-25 17:00 | 0.16735 | 166.01054 | 30754 ft | 466 kts | 315° |
| 2026-04-25 17:00 | 0.18917 | 165.98668 | 31119 ft | 469 kts | 315° |
| 2026-04-25 17:00 | 0.21108 | 165.96272 | 31499 ft | 469 kts | 315° |
| 2026-04-25 17:01 | 0.23294 | 165.93883 | 31746 ft | 469 kts | 315° |
| 2026-04-25 17:01 | 0.27689 | 165.89075 | 31780 ft | 470 kts | 315° |
| 2026-04-25 17:02 | 0.32097 | 165.84255 | 31777 ft | 470 kts | 315° |
| 2026-04-25 17:02 | 0.36491 | 165.79450 | 31777 ft | 469 kts | 315° |
| 2026-04-25 17:03 | 0.40886 | 165.74643 | 31777 ft | 469 kts | 315° |
| 2026-04-25 17:03 | 0.45245 | 165.69878 | 31776 ft | 470 kts | 315° |
| 2026-04-25 17:04 | 0.49641 | 165.65070 | 31777 ft | 470 kts | 315° |
| 2026-04-25 17:04 | 0.54044 | 165.60254 | 31777 ft | 470 kts | 315° |
| 2026-04-25 17:05 | 0.58439 | 165.55447 | 31776 ft | 469 kts | 315° |
| 2026-04-25 17:05 | 0.65022 | 165.48248 | 31776 ft | 470 kts | 315° |
| 2026-04-25 17:06 | 0.69417 | 165.43442 | 31776 ft | 470 kts | 315° |
| 2026-04-25 17:06 | 0.73819 | 165.38628 | 31775 ft | 470 kts | 315° |
| 2026-04-25 17:07 | 0.78227 | 165.33804 | 31775 ft | 470 kts | 315° |
| 2026-04-25 17:07 | 0.82605 | 165.29016 | 31774 ft | 470 kts | 315° |
| 2026-04-25 17:08 | 0.87004 | 165.24205 | 31774 ft | 470 kts | 315° |
| 2026-04-25 17:08 | 0.91407 | 165.19388 | 31774 ft | 470 kts | 315° |
| 2026-04-25 17:09 | 0.95797 | 165.14584 | 31773 ft | 470 kts | 315° |
| 2026-04-25 17:09 | 1.00173 | 165.09793 | 31777 ft | 470 kts | 315° |
| 2026-04-25 17:10 | 1.04574 | 165.04976 | 31793 ft | 470 kts | 316° |
| 2026-04-25 17:10 | 1.08996 | 165.00139 | 31810 ft | 471 kts | 316° |
| 2026-04-25 17:11 | 1.13379 | 164.95346 | 31833 ft | 472 kts | 316° |
| 2026-04-25 17:11 | 1.16776 | 164.91631 | 31870 ft | 471 kts | 316° |
| 2026-04-25 17:12 | 1.21763 | 164.86175 | 31873 ft | 471 kts | 316° |
| 2026-04-25 17:12 | 1.26182 | 164.81340 | 31874 ft | 471 kts | 316° |
| 2026-04-25 17:13 | 1.29124 | 164.78120 | 31874 ft | 471 kts | 316° |
| 2026-04-25 17:13 | 1.35027 | 164.71660 | 31873 ft | 471 kts | 316° |
| 2026-04-25 17:14 | 1.39326 | 164.66956 | 31873 ft | 471 kts | 316° |
| 2026-04-25 17:14 | 1.43739 | 164.62125 | 31873 ft | 471 kts | 316° |
| 2026-04-25 17:15 | 1.48139 | 164.57309 | 31873 ft | 471 kts | 316° |
| 2026-04-25 17:15 | 1.52551 | 164.52478 | 31874 ft | 471 kts | 316° |
| 2026-04-25 17:16 | 1.56960 | 164.47652 | 31873 ft | 471 kts | 316° |
| 2026-04-25 17:16 | 1.61417 | 164.42773 | 31873 ft | 471 kts | 316° |
| 2026-04-25 17:17 | 1.65847 | 164.37923 | 31872 ft | 471 kts | 316° |
| 2026-04-25 17:17 | 1.70280 | 164.33067 | 31868 ft | 471 kts | 316° |
| 2026-04-25 17:18 | 1.74710 | 164.28218 | 31868 ft | 471 kts | 316° |
| 2026-04-25 17:18 | 1.79053 | 164.23361 | 31868 ft | 471 kts | 315° |
| 2026-04-25 17:19 | 1.83327 | 164.18445 | 31868 ft | 472 kts | 315° |
| 2026-04-25 17:19 | 1.87536 | 164.13599 | 31867 ft | 472 kts | 315° |
| 2026-04-25 17:20 | 1.91827 | 164.08658 | 31867 ft | 472 kts | 315° |
| 2026-04-25 17:20 | 1.96151 | 164.03679 | 31867 ft | 472 kts | 315° |
| 2026-04-25 17:21 | 2.00459 | 163.98720 | 31867 ft | 472 kts | 315° |
| 2026-04-25 17:21 | 2.04745 | 163.93782 | 31867 ft | 472 kts | 315° |
| 2026-04-25 17:22 | 2.08297 | 163.89693 | 31867 ft | 472 kts | 315° |
| 2026-04-25 17:22 | 2.13324 | 163.83902 | 31873 ft | 472 kts | 315° |
| 2026-04-25 17:23 | 2.17616 | 163.78958 | 31875 ft | 471 kts | 315° |
| 2026-04-25 17:23 | 2.21910 | 163.74011 | 31874 ft | 471 kts | 315° |
| 2026-04-25 17:24 | 2.26216 | 163.69049 | 31874 ft | 471 kts | 315° |
| 2026-04-25 17:24 | 2.30313 | 163.64328 | 31874 ft | 471 kts | 315° |
| 2026-04-25 17:25 | 2.34618 | 163.59367 | 31874 ft | 471 kts | 315° |
| 2026-04-25 17:25 | 2.38933 | 163.54395 | 31874 ft | 471 kts | 315° |
| 2026-04-25 17:26 | 2.42751 | 163.49992 | 31874 ft | 471 kts | 315° |
| 2026-04-25 17:26 | 2.47030 | 163.45061 | 31874 ft | 472 kts | 315° |
| 2026-04-25 17:27 | 2.51332 | 163.40100 | 31874 ft | 472 kts | 315° |
| 2026-04-25 17:27 | 2.54170 | 163.36829 | 31873 ft | 472 kts | 315° |
| 2026-04-25 17:28 | 2.59896 | 163.30226 | 31869 ft | 472 kts | 315° |
| 2026-04-25 17:28 | 2.64179 | 163.25285 | 31869 ft | 472 kts | 315° |
| 2026-04-25 17:29 | 2.68474 | 163.20332 | 31868 ft | 472 kts | 315° |
| 2026-04-25 17:29 | 2.72803 | 163.15338 | 31868 ft | 472 kts | 315° |
| 2026-04-25 17:30 | 2.76698 | 163.10844 | 31868 ft | 473 kts | 315° |
| 2026-04-25 17:30 | 2.81153 | 163.05705 | 31868 ft | 473 kts | 315° |
| 2026-04-25 17:31 | 2.85465 | 163.00728 | 31868 ft | 474 kts | 315° |
| 2026-04-25 17:31 | 2.89692 | 162.95851 | 31868 ft | 475 kts | 315° |
| 2026-04-25 17:32 | 2.94007 | 162.90872 | 31869 ft | 476 kts | 315° |
| 2026-04-25 17:32 | 2.98324 | 162.85889 | 31871 ft | 477 kts | 315° |
| 2026-04-25 17:33 | 3.02667 | 162.80875 | 31869 ft | 478 kts | 314° |
| 2026-04-25 17:33 | 3.07002 | 162.75868 | 31869 ft | 478 kts | 314° |
| 2026-04-25 17:34 | 3.11358 | 162.70836 | 31874 ft | 478 kts | 314° |
| 2026-04-25 17:34 | 3.15679 | 162.65846 | 31874 ft | 478 kts | 314° |
| 2026-04-25 17:35 | 3.20047 | 162.60799 | 31875 ft | 478 kts | 314° |
| 2026-04-25 17:35 | 3.24381 | 162.55792 | 31875 ft | 478 kts | 314° |
| 2026-04-25 17:36 | 3.28721 | 162.50778 | 31875 ft | 478 kts | 314° |
| 2026-04-25 17:36 | 3.33068 | 162.45755 | 31873 ft | 478 kts | 314° |
| 2026-04-25 17:37 | 3.37433 | 162.40709 | 31875 ft | 478 kts | 314° |
| 2026-04-25 17:37 | 3.41784 | 162.35680 | 31875 ft | 478 kts | 314° |
| 2026-04-25 17:38 | 3.45404 | 162.31494 | 31870 ft | 478 kts | 314° |
| 2026-04-25 17:38 | 3.50522 | 162.25565 | 31869 ft | 478 kts | 314° |
| 2026-04-25 17:39 | 3.54797 | 162.20560 | 31870 ft | 478 kts | 314° |
| 2026-04-25 17:39 | 3.59110 | 162.15508 | 31869 ft | 478 kts | 314° |
| 2026-04-25 17:40 | 3.63447 | 162.10426 | 31869 ft | 478 kts | 314° |
| 2026-04-25 17:40 | 3.67757 | 162.05376 | 31869 ft | 478 kts | 314° |
| 2026-04-25 17:41 | 3.72095 | 162.00291 | 31870 ft | 478 kts | 314° |
| 2026-04-25 17:41 | 3.76428 | 161.95210 | 31870 ft | 479 kts | 314° |
| 2026-04-25 17:42 | 3.80748 | 161.90146 | 31870 ft | 479 kts | 314° |
| 2026-04-25 17:42 | 3.85084 | 161.85062 | 31870 ft | 478 kts | 314° |
| 2026-04-25 17:43 | 3.89393 | 161.80008 | 31870 ft | 478 kts | 314° |
| 2026-04-25 17:43 | 3.93739 | 161.74908 | 31869 ft | 478 kts | 314° |
| 2026-04-25 17:44 | 3.98042 | 161.69861 | 31870 ft | 478 kts | 314° |
| 2026-04-25 17:44 | 4.02370 | 161.64781 | 31870 ft | 478 kts | 314° |
| 2026-04-25 17:45 | 4.05253 | 161.61398 | 31869 ft | 478 kts | 314° |
| 2026-04-25 17:45 | 4.11036 | 161.54608 | 31873 ft | 478 kts | 314° |
| 2026-04-25 17:46 | 4.15261 | 161.49649 | 31876 ft | 478 kts | 314° |
| 2026-04-25 17:46 | 4.19621 | 161.44530 | 31876 ft | 478 kts | 314° |
| 2026-04-25 17:47 | 4.23914 | 161.39487 | 31876 ft | 478 kts | 314° |
| 2026-04-25 17:47 | 4.28204 | 161.34447 | 31874 ft | 478 kts | 314° |
| 2026-04-25 17:48 | 4.34703 | 161.26810 | 31870 ft | 478 kts | 314° |
| 2026-04-25 17:49 | 4.39051 | 161.21698 | 31870 ft | 478 kts | 314° |
| 2026-04-25 17:49 | 4.43344 | 161.16652 | 31871 ft | 478 kts | 314° |
| 2026-04-25 17:50 | 4.47664 | 161.11572 | 31870 ft | 478 kts | 314° |
| 2026-04-25 17:50 | 4.51947 | 161.06537 | 31871 ft | 478 kts | 314° |
| 2026-04-25 17:51 | 4.56247 | 161.01479 | 31872 ft | 479 kts | 314° |
| 2026-04-25 17:51 | 4.60487 | 160.96489 | 31870 ft | 480 kts | 314° |
| 2026-04-25 17:52 | 4.64803 | 160.91411 | 31871 ft | 481 kts | 314° |
| 2026-04-25 17:52 | 4.69152 | 160.86293 | 31871 ft | 482 kts | 314° |
| 2026-04-25 17:53 | 4.73467 | 160.81212 | 31871 ft | 483 kts | 314° |
| 2026-04-25 17:53 | 4.77829 | 160.76076 | 31870 ft | 484 kts | 314° |
| 2026-04-25 17:54 | 4.82170 | 160.70964 | 31872 ft | 483 kts | 314° |
| 2026-04-25 17:54 | 4.86215 | 160.66197 | 31871 ft | 483 kts | 314° |
| 2026-04-25 17:55 | 4.90651 | 160.60971 | 31872 ft | 483 kts | 314° |
| 2026-04-25 17:55 | 4.95012 | 160.55832 | 31872 ft | 483 kts | 314° |
| 2026-04-25 17:56 | 4.99352 | 160.50716 | 31872 ft | 483 kts | 314° |
| 2026-04-25 17:56 | 5.03664 | 160.45631 | 31871 ft | 482 kts | 314° |
| 2026-04-25 17:57 | 5.08029 | 160.40485 | 31872 ft | 481 kts | 314° |
| 2026-04-25 17:57 | 5.12351 | 160.35387 | 31876 ft | 480 kts | 314° |
| 2026-04-25 17:58 | 5.16669 | 160.30292 | 31871 ft | 480 kts | 314° |
| 2026-04-25 17:58 | 5.20986 | 160.25198 | 31871 ft | 480 kts | 314° |
| 2026-04-25 17:59 | 5.25326 | 160.20075 | 31870 ft | 480 kts | 314° |
| 2026-04-25 17:59 | 5.29638 | 160.14984 | 31871 ft | 480 kts | 314° |
| 2026-04-25 18:00 | 5.33971 | 160.09866 | 31871 ft | 480 kts | 314° |
| 2026-04-25 18:00 | 5.38304 | 160.04748 | 31870 ft | 480 kts | 314° |
| 2026-04-25 18:01 | 5.42642 | 159.99623 | 31871 ft | 481 kts | 314° |
| 2026-04-25 18:01 | 5.46943 | 159.94540 | 31871 ft | 481 kts | 314° |
| 2026-04-25 18:02 | 5.51305 | 159.89383 | 31871 ft | 482 kts | 314° |
| 2026-04-25 18:02 | 5.55640 | 159.84258 | 31871 ft | 482 kts | 314° |
| 2026-04-25 18:03 | 5.60011 | 159.79089 | 31872 ft | 482 kts | 314° |
| 2026-04-25 18:03 | 5.64254 | 159.74069 | 31871 ft | 482 kts | 314° |
| 2026-04-25 18:04 | 5.68586 | 159.68944 | 31871 ft | 482 kts | 314° |
| 2026-04-25 18:04 | 5.72912 | 159.63823 | 31872 ft | 482 kts | 314° |
| 2026-04-25 18:05 | 5.77257 | 159.58679 | 31871 ft | 482 kts | 314° |
| 2026-04-25 18:05 | 5.81556 | 159.53589 | 31871 ft | 482 kts | 314° |
| 2026-04-25 18:06 | 5.85886 | 159.48460 | 31872 ft | 482 kts | 314° |
| 2026-04-25 18:06 | 5.90209 | 159.43338 | 31872 ft | 482 kts | 314° |
| 2026-04-25 18:07 | 5.94516 | 159.38234 | 31871 ft | 482 kts | 314° |
| 2026-04-25 18:07 | 5.98824 | 159.33127 | 31866 ft | 482 kts | 314° |
| 2026-04-25 18:08 | 6.03151 | 159.28003 | 30531 ft | 496 kts | 314° |
| 2026-04-25 18:08 | 6.05311 | 159.25441 | 29088 ft | 466 kts | 313° |
| 2026-04-25 18:08 | 6.07297 | 159.23067 | 28138 ft | 445 kts | 313° |
| 2026-04-25 18:08 | 6.09270 | 159.20734 | 26378 ft | 441 kts | 314° |
| 2026-04-25 18:09 | 6.11233 | 159.18425 | 23941 ft | 446 kts | 313° |
| 2026-04-25 18:09 | 6.13185 | 159.16161 | 22053 ft | 436 kts | 316° |
| 2026-04-25 18:09 | 6.15422 | 159.14194 | 20242 ft | 419 kts | 326° |
| 2026-04-25 18:09 | 6.16191 | 159.13646 | 19574 ft | 418 kts | 327° |
| 2026-04-25 18:10 | 6.20007 | 159.11009 | 16263 ft | 405 kts | 329° |
| 2026-04-25 18:10 | 6.22259 | 159.09549 | 14665 ft | 392 kts | 330° |
| 2026-04-25 18:10 | 6.24479 | 159.08136 | 13921 ft | 357 kts | 328° |
| 2026-04-25 18:10 | 6.26101 | 159.06499 | 14661 ft | 365 kts | 307° |
| 2026-04-25 18:11 | 6.27188 | 159.04112 | 14929 ft | 387 kts | 286° |
| 2026-04-25 18:11 | 6.28072 | 159.01517 | 14543 ft | 390 kts | 302° |
| 2026-04-25 18:11 | 6.29837 | 158.99573 | 14120 ft | 374 kts | 320° |
| 2026-04-25 18:11 | 6.31664 | 158.97757 | 13708 ft | 364 kts | 315° |
| 2026-04-25 18:12 | 6.33359 | 158.95891 | 13305 ft | 356 kts | 314° |
| 2026-04-25 18:12 | 6.34960 | 158.94070 | 12921 ft | 347 kts | 314° |
| 2026-04-25 18:12 | 6.36532 | 158.92265 | 12549 ft | 340 kts | 313° |
| 2026-04-25 18:12 | 6.38071 | 158.90491 | 12166 ft | 333 kts | 313° |
| 2026-04-25 18:13 | 6.39585 | 158.88744 | 11773 ft | 328 kts | 313° |
| 2026-04-25 18:13 | 6.41074 | 158.87024 | 11405 ft | 322 kts | 313° |
| 2026-04-25 18:13 | 6.42526 | 158.85347 | 11056 ft | 317 kts | 313° |
| 2026-04-25 18:14 | 6.45361 | 158.82071 | 10391 ft | 307 kts | 314° |
| 2026-04-25 18:14 | 6.46751 | 158.80466 | 10088 ft | 306 kts | 314° |
| 2026-04-25 18:14 | 6.48139 | 158.78862 | 9804 ft | 304 kts | 314° |
| 2026-04-25 18:14 | 6.49515 | 158.77269 | 9508 ft | 299 kts | 314° |
| 2026-04-25 18:15 | 6.50861 | 158.75714 | 9219 ft | 293 kts | 314° |
| 2026-04-25 18:15 | 6.52199 | 158.74167 | 8942 ft | 288 kts | 314° |
| 2026-04-25 18:15 | 6.53514 | 158.72646 | 8711 ft | 286 kts | 314° |
| 2026-04-25 18:15 | 6.54810 | 158.71147 | 8501 ft | 286 kts | 314° |
| 2026-04-25 18:16 | 6.56118 | 158.69636 | 8301 ft | 286 kts | 314° |
| 2026-04-25 18:16 | 6.57419 | 158.68132 | 8091 ft | 285 kts | 314° |
| 2026-04-25 18:16 | 6.60015 | 158.65129 | 7652 ft | 283 kts | 314° |
| 2026-04-25 18:17 | 6.61295 | 158.63647 | 7427 ft | 282 kts | 314° |
| 2026-04-25 18:17 | 6.62568 | 158.62175 | 7197 ft | 280 kts | 314° |
| 2026-04-25 18:17 | 6.63806 | 158.60742 | 6968 ft | 279 kts | 314° |
| 2026-04-25 18:17 | 6.65065 | 158.59286 | 6729 ft | 278 kts | 314° |
| 2026-04-25 18:18 | 6.66399 | 158.57903 | 6484 ft | 276 kts | 319° |
| 2026-04-25 18:18 | 6.67783 | 158.56560 | 6238 ft | 274 kts | 319° |
| 2026-04-25 18:18 | 6.69146 | 158.55252 | 5999 ft | 273 kts | 319° |
| 2026-04-25 18:18 | 6.70516 | 158.53944 | 5758 ft | 271 kts | 319° |
| 2026-04-25 18:19 | 6.71884 | 158.52640 | 5491 ft | 267 kts | 319° |
| 2026-04-25 18:19 | 6.73210 | 158.51376 | 5227 ft | 264 kts | 319° |
| 2026-04-25 18:19 | 6.74540 | 158.50110 | 4952 ft | 261 kts | 319° |
| 2026-04-25 18:19 | 6.75842 | 158.48868 | 4679 ft | 256 kts | 319° |
| 2026-04-25 18:20 | 6.77087 | 158.47678 | 4347 ft | 241 kts | 319° |
| 2026-04-25 18:20 | 6.78368 | 158.46462 | 4202 ft | 265 kts | 319° |
| 2026-04-25 18:20 | 6.79739 | 158.45157 | 4037 ft | 273 kts | 319° |
| 2026-04-25 18:20 | 6.81057 | 158.43893 | 3795 ft | 252 kts | 319° |
| 2026-04-25 18:21 | 6.82234 | 158.42767 | 3591 ft | 235 kts | 319° |
| 2026-04-25 18:21 | 6.83386 | 158.41669 | 3363 ft | 222 kts | 319° |
| 2026-04-25 18:21 | 6.84470 | 158.40634 | 3226 ft | 209 kts | 319° |
| 2026-04-25 18:21 | 6.85502 | 158.39651 | 3126 ft | 201 kts | 320° |
| 2026-04-25 18:22 | 6.86494 | 158.38705 | 2998 ft | 191 kts | 320° |
| 2026-04-25 18:22 | 6.86812 | 158.38402 | 2950 ft | 190 kts | 320° |
| 2026-04-25 18:22 | 6.88372 | 158.36914 | 2722 ft | 180 kts | 320° |
| 2026-04-25 18:22 | 6.89282 | 158.36047 | 2578 ft | 178 kts | 320° |
| 2026-04-25 18:23 | 6.90177 | 158.35193 | 2458 ft | 176 kts | 320° |
| 2026-04-25 18:23 | 6.91045 | 158.34364 | 2294 ft | 172 kts | 320° |
| 2026-04-25 18:23 | 6.91917 | 158.33533 | 2138 ft | 170 kts | 320° |
| 2026-04-25 18:23 | 6.92771 | 158.32724 | 1994 ft | 170 kts | 320° |
| 2026-04-25 18:24 | 6.93649 | 158.31917 | 1860 ft | 170 kts | 321° |
| 2026-04-25 18:24 | 6.94549 | 158.31126 | 1723 ft | 172 kts | 322° |
| 2026-04-25 18:24 | 6.95459 | 158.30377 | 1587 ft | 172 kts | 322° |
| 2026-04-25 18:24 | 6.96313 | 158.29541 | 1303 ft | 170 kts | 317° |
| 2026-04-25 18:25 | 6.97134 | 158.28659 | 1135 ft | 170 kts | 314° |
| 2026-04-25 18:25 | 6.97861 | 158.27750 | 890 ft | 163 kts | 306° |
| 2026-04-25 18:25 | 6.98260 | 158.26700 | 664 ft | 165 kts | 280° |
| 2026-04-25 18:25 | 6.98414 | 158.25511 | 600 ft | 174 kts | 278° |
| 2026-04-25 18:26 | 6.98484 | 158.24321 | 485 ft | 166 kts | 272° |
| 2026-04-25 18:26 | 6.98491 | 158.23180 | 300 ft | 162 kts | 272° |
| 2026-04-25 18:26 | 6.98501 | 158.22058 | 90 ft | 161 kts | 272° |
| 2026-04-25 18:26 | 6.98504 | 158.20984 | 18 ft | 140 kts | 272° |
| 2026-04-25 18:27 | 6.98516 | 158.20277 | 17 ft | 36 kts | 270° |
| 2026-04-25 18:27 | 6.98477 | 158.20093 | 18 ft | 22 kts | 298° |
| 2026-04-25 18:27 | 6.98523 | 158.20151 | 17 ft | 13 kts | 94° |
| 2026-04-25 18:27 | 6.98519 | 158.20192 | 17 ft | 0 kts | 95° |
| 2026-04-25 18:28 | 6.98519 | 158.20253 | 17 ft | 18 kts | 88° |
| 2026-04-25 18:28 | 6.98464 | 158.20358 | 17 ft | 16 kts | 174° |
| 2026-04-25 18:29 | 6.98434 | 158.20360 | 17 ft | 0 kts | 179° |
| 2026-04-25 18:30 | 6.98386 | 158.20358 | 17 ft | 12 kts | 181° |
| 2026-04-25 18:30 | 6.98300 | 158.20355 | 17 ft | 10 kts | 187° |
| 2026-04-25 18:30 | 6.98244 | 158.20329 | 17 ft | 6 kts | 189° |
| 2026-04-25 18:31 | 6.98209 | 158.20329 | 17 ft | 3 kts | 177° |
| 2026-04-25 18:31 | 6.98195 | 158.20329 | 17 ft | 2 kts | 179° |
| 2026-04-25 18:31 | 6.98181 | 158.20331 | 17 ft | 0 kts | 179° |